createdAt,value
2018-02-24T00:00:42.990Z,24.80
2018-02-24T00:03:11.066Z,24.70
2018-02-24T00:05:39.182Z,24.80
2018-02-24T00:08:07.371Z,24.70
2018-02-24T00:10:35.454Z,24.80
2018-02-24T00:13:03.517Z,24.70
2018-02-24T00:15:31.731Z,24.70
2018-02-24T00:17:59.804Z,24.70
2018-02-24T00:20:27.861Z,24.70
2018-02-24T00:22:56.070Z,24.70
2018-02-24T00:25:24.159Z,24.70
2018-02-24T00:27:52.978Z,24.70
2018-02-24T00:30:21.323Z,24.70
2018-02-24T00:32:50.135Z,24.60
2018-02-24T00:35:18.252Z,24.60
2018-02-24T00:37:46.436Z,24.60
2018-02-24T00:40:14.516Z,24.50
2018-02-24T00:42:42.610Z,24.50
2018-02-24T00:45:11.618Z,24.60
2018-02-24T00:47:39.720Z,24.60
2018-02-24T00:50:07.804Z,24.60
2018-02-24T00:52:36.019Z,24.50
2018-02-24T00:55:04.840Z,24.50
2018-02-24T00:57:33.063Z,24.50
2018-02-24T01:00:01.263Z,24.50
2018-02-24T01:02:30.322Z,24.50
2018-02-24T01:04:58.395Z,24.50
2018-02-24T01:07:26.619Z,24.50
2018-02-24T01:09:55.447Z,24.50
2018-02-24T01:12:23.503Z,24.40
2018-02-24T01:14:51.717Z,24.40
2018-02-24T01:17:19.791Z,24.50
2018-02-24T01:19:47.875Z,24.40
2018-02-24T01:22:16.243Z,24.40
2018-02-24T01:24:44.328Z,24.30
2018-02-24T01:27:12.455Z,24.40
2018-02-24T01:29:40.799Z,24.30
2018-02-24T01:32:09.780Z,24.30
2018-02-24T01:34:37.844Z,24.30
2018-02-24T01:37:06.064Z,24.30
2018-02-24T01:39:34.139Z,24.20
2018-02-24T01:42:02.212Z,24.20
2018-02-24T01:44:30.411Z,24.20
2018-02-24T01:46:58.491Z,24.10
2018-02-24T01:49:26.558Z,24.10
2018-02-24T01:51:54.759Z,24.00
2018-02-24T01:54:22.832Z,24.00
2018-02-24T01:56:50.899Z,24.00
2018-02-24T01:59:19.900Z,24.10
2018-02-24T02:01:47.996Z,24.00
2018-02-24T02:04:16.822Z,24.00
2018-02-24T02:06:45.032Z,24.00
2018-02-24T02:09:13.141Z,24.10
2018-02-24T02:11:41.948Z,24.10
2018-02-24T02:14:10.879Z,24.20
2018-02-24T02:16:38.955Z,24.10
2018-02-24T02:19:07.015Z,24.20
2018-02-24T02:21:35.220Z,24.20
2018-02-24T02:24:03.289Z,24.20
2018-02-24T02:26:31.364Z,24.20
2018-02-24T02:28:59.568Z,24.10
2018-02-24T02:31:28.385Z,24.10
2018-02-24T02:33:56.601Z,24.10
2018-02-24T02:36:24.864Z,24.10
2018-02-24T02:38:52.944Z,24.10
2018-02-24T02:41:21.029Z,24.20
2018-02-24T02:43:49.236Z,24.10
2018-02-24T02:46:18.039Z,24.10
2018-02-24T02:48:46.861Z,24.00
2018-02-24T02:51:15.053Z,24.00
2018-02-24T02:53:43.123Z,24.00
2018-02-24T02:56:11.188Z,23.90
2018-02-24T02:58:39.564Z,24.00
2018-02-24T03:01:07.649Z,24.00
2018-02-24T03:03:35.749Z,24.00
2018-02-24T03:06:04.985Z,23.90
2018-02-24T03:08:33.088Z,23.90
2018-02-24T03:11:01.163Z,23.90
2018-02-24T03:13:29.376Z,23.90
2018-02-24T03:15:57.431Z,24.00
2018-02-24T03:18:25.511Z,24.10
2018-02-24T03:20:54.037Z,24.10
2018-02-24T03:23:22.115Z,24.30
2018-02-24T03:25:50.275Z,24.30
2018-02-24T03:28:19.215Z,24.40
2018-02-24T03:30:47.284Z,24.40
2018-02-24T03:33:15.359Z,24.50
2018-02-24T03:35:43.692Z,24.50
2018-02-24T03:38:12.527Z,24.40
2018-02-24T03:40:40.604Z,24.40
2018-02-24T03:43:08.931Z,24.50
2018-02-24T03:45:50.471Z,24.60
2018-02-24T03:48:18.667Z,24.60
2018-02-24T03:50:46.908Z,24.70
2018-02-24T03:53:15.141Z,24.80
2018-02-24T03:55:44.245Z,25.00
2018-02-24T03:58:13.076Z,25.30
2018-02-24T04:00:41.175Z,25.30
2018-02-24T04:03:09.392Z,25.50
2018-02-24T04:05:38.369Z,26.20
2018-02-24T04:08:07.215Z,26.40
2018-02-24T04:10:35.403Z,26.40
2018-02-24T04:13:03.502Z,26.40
2018-02-24T04:15:32.361Z,26.20
2018-02-24T04:18:00.563Z,26.20
2018-02-24T04:20:28.687Z,26.40
2018-02-24T04:22:56.768Z,26.50
2018-02-24T04:25:24.971Z,26.40
2018-02-24T04:27:53.054Z,26.20
2018-02-24T04:30:21.214Z,26.30
2018-02-24T04:32:49.443Z,26.60
2018-02-24T04:35:17.526Z,27.40
2018-02-24T04:37:45.730Z,27.70
2018-02-24T04:40:13.920Z,27.30
2018-02-24T04:42:41.987Z,27.20
2018-02-24T04:45:10.059Z,27.20
2018-02-24T04:47:38.283Z,27.40
2018-02-24T04:50:07.109Z,27.80
2018-02-24T04:52:35.226Z,27.80
2018-02-24T04:55:04.194Z,28.20
2018-02-24T04:57:32.279Z,28.20
2018-02-24T05:00:00.361Z,28.50
2018-02-24T05:02:28.567Z,28.40
2018-02-24T05:04:57.373Z,28.50
2018-02-24T05:07:25.439Z,28.50
2018-02-24T05:09:53.657Z,28.80
2018-02-24T05:12:21.728Z,28.90
2018-02-24T05:14:49.828Z,28.80
2018-02-24T05:17:18.024Z,28.60
2018-02-24T05:19:46.843Z,28.50
2018-02-24T05:22:14.928Z,28.50
2018-02-24T05:24:43.184Z,28.70
2018-02-24T05:27:11.272Z,28.80
2018-02-24T05:29:39.347Z,28.80
2018-02-24T05:32:07.576Z,29.10
2018-02-24T05:34:36.379Z,29.50
2018-02-24T05:37:04.448Z,29.50
2018-02-24T05:39:33.540Z,30.10
2018-02-24T05:42:02.351Z,30.00
2018-02-24T05:44:30.427Z,30.00
2018-02-24T05:46:58.680Z,30.20
2018-02-24T05:49:27.500Z,30.60
2018-02-24T05:51:55.587Z,30.60
2018-02-24T05:54:23.780Z,30.90
2018-02-24T05:56:51.928Z,30.80
2018-02-24T05:59:20.060Z,30.80
2018-02-24T06:01:49.167Z,31.10
2018-02-24T06:04:18.106Z,31.60
2018-02-24T06:06:46.219Z,31.60
2018-02-24T06:09:15.143Z,31.90
2018-02-24T06:11:43.200Z,31.80
2018-02-24T06:14:12.052Z,32.00
2018-02-24T06:16:40.282Z,32.00
2018-02-24T06:19:08.415Z,32.50
2018-02-24T06:21:36.495Z,33.10
2018-02-24T06:24:04.825Z,34.10
2018-02-24T06:39:38.718Z,34.50
2018-02-24T06:42:06.791Z,33.10
2018-02-24T06:44:34.855Z,32.30
2018-02-24T06:47:03.064Z,32.40
2018-02-24T06:49:31.144Z,32.50
2018-02-24T06:51:59.211Z,32.40
2018-02-24T06:54:27.399Z,32.80
2018-02-24T06:56:55.475Z,33.10
2018-02-24T06:59:23.567Z,33.20
2018-02-24T07:01:52.018Z,33.50
2018-02-24T07:04:20.116Z,33.30
2018-02-24T07:06:48.203Z,33.30
2018-02-24T07:09:17.143Z,33.60
2018-02-24T07:11:45.195Z,33.60
2018-02-24T07:14:13.267Z,33.20
2018-02-24T07:16:41.456Z,33.50
2018-02-24T07:19:09.549Z,33.50
2018-02-24T07:21:37.624Z,33.70
2018-02-24T07:24:05.831Z,33.80
2018-02-24T07:26:33.923Z,33.50
2018-02-24T07:29:02.731Z,33.90
2018-02-24T07:31:30.943Z,33.90
2018-02-24T07:33:59.020Z,33.80
2018-02-24T07:36:27.096Z,34.60
2018-02-24T07:38:55.283Z,35.80
2018-02-24T07:41:23.504Z,36.60
2018-02-24T07:43:51.610Z,36.50
2018-02-24T07:46:19.927Z,35.90
2018-02-24T07:48:48.748Z,34.90
2018-02-24T07:51:16.819Z,35.00
2018-02-24T07:53:45.040Z,35.30
2018-02-24T07:56:13.103Z,35.10
2018-02-24T07:58:41.196Z,35.00
2018-02-24T08:01:09.400Z,35.10
2018-02-24T08:03:39.252Z,35.10
2018-02-24T08:06:07.346Z,35.10
2018-02-24T08:08:35.599Z,34.80
2018-02-24T08:11:03.845Z,34.60
2018-02-24T08:13:32.658Z,34.70
2018-02-24T08:16:00.895Z,34.70
2018-02-24T08:18:29.010Z,34.80
2018-02-24T08:20:57.083Z,34.80
2018-02-24T08:23:25.299Z,34.70
2018-02-24T08:25:53.367Z,34.80
2018-02-24T08:28:21.560Z,35.00
2018-02-24T08:30:49.763Z,34.90
2018-02-24T08:33:17.841Z,34.60
2018-02-24T08:35:45.907Z,34.60
2018-02-24T08:38:14.851Z,34.20
2018-02-24T08:40:42.923Z,34.20
2018-02-24T08:43:11.120Z,34.30
2018-02-24T08:45:40.792Z,34.60
2018-02-24T08:48:08.888Z,34.70
2018-02-24T08:50:36.964Z,34.80
2018-02-24T08:53:05.382Z,34.90
2018-02-24T08:55:34.239Z,35.80
2018-02-24T08:58:02.319Z,35.80
2018-02-24T09:00:30.544Z,36.30
2018-02-24T09:02:58.611Z,35.50
2018-02-24T09:05:26.721Z,35.20
2018-02-24T09:07:54.991Z,34.90
2018-02-24T09:10:23.070Z,34.50
2018-02-24T09:12:51.164Z,34.30
2018-02-24T09:15:19.428Z,34.20
2018-02-24T09:17:47.507Z,34.20
2018-02-24T09:20:15.577Z,34.30
2018-02-24T09:22:43.788Z,34.30
2018-02-24T09:25:13.619Z,34.20
2018-02-24T09:27:41.703Z,34.20
2018-02-24T09:30:09.907Z,34.20
2018-02-24T09:32:37.976Z,34.20
2018-02-24T09:35:06.350Z,34.20
2018-02-24T09:37:34.556Z,34.30
2018-02-24T09:40:02.635Z,34.20
2018-02-24T09:42:31.460Z,34.30
2018-02-24T09:45:00.049Z,34.30
2018-02-24T09:47:28.160Z,34.10
2018-02-24T09:49:56.256Z,34.10
2018-02-24T09:52:24.965Z,34.10
2018-02-24T09:54:53.279Z,34.30
2018-02-24T09:57:21.367Z,34.50
2018-02-24T09:59:49.735Z,34.50
2018-02-24T10:02:17.800Z,34.30
2018-02-24T10:04:45.933Z,34.20
2018-02-24T10:07:14.881Z,34.20
2018-02-24T10:09:42.966Z,34.20
2018-02-24T10:12:11.100Z,34.30
2018-02-24T10:14:39.309Z,34.30
2018-02-24T10:17:07.451Z,34.30
2018-02-24T10:19:35.727Z,34.30
2018-02-24T10:22:03.965Z,34.30
2018-02-24T10:24:32.107Z,34.30
2018-02-24T10:27:00.447Z,34.20
2018-02-24T10:29:29.558Z,34.20
2018-02-24T10:31:57.781Z,34.30
2018-02-24T10:34:25.863Z,34.20
2018-02-24T10:36:54.094Z,34.20
2018-02-24T10:39:22.184Z,34.30
2018-02-24T10:41:50.260Z,34.30
2018-02-24T10:44:21.659Z,34.50
2018-02-24T10:46:50.004Z,34.60
2018-02-24T10:49:18.076Z,34.70
2018-02-24T10:51:46.279Z,34.80
2018-02-24T10:54:15.109Z,34.50
2018-02-24T10:56:43.182Z,34.50
2018-02-24T10:59:11.378Z,34.30
2018-02-24T11:01:39.451Z,34.30
2018-02-24T11:04:07.527Z,34.30
2018-02-24T11:06:35.748Z,34.10
2018-02-24T11:09:04.764Z,34.20
2018-02-24T11:11:32.842Z,34.20
2018-02-24T11:14:01.044Z,34.30
2018-02-24T11:16:29.129Z,34.40
2018-02-24T11:18:57.200Z,34.50
2018-02-24T11:21:25.417Z,34.50
2018-02-24T11:23:54.235Z,34.60
2018-02-24T11:26:22.311Z,34.60
2018-02-24T11:28:50.511Z,34.40
2018-02-24T11:31:18.615Z,34.50
2018-02-24T11:33:47.431Z,34.60
2018-02-24T11:36:15.629Z,34.60
2018-02-24T11:38:43.931Z,34.50
2018-02-24T11:41:12.013Z,34.40
2018-02-24T11:43:40.363Z,34.40
2018-02-24T11:46:08.453Z,34.20
2018-02-24T11:48:36.676Z,33.90
2018-02-24T11:51:05.636Z,33.40
2018-02-24T11:53:33.875Z,33.40
2018-02-24T11:56:01.938Z,33.20
2018-02-24T11:58:30.139Z,33.30
2018-02-24T12:00:58.220Z,33.30
2018-02-24T12:03:26.473Z,33.20
2018-02-24T12:05:55.487Z,33.10
2018-02-24T12:08:23.722Z,33.10
2018-02-24T12:10:51.832Z,32.80
2018-02-24T12:13:20.073Z,32.70
2018-02-24T12:15:48.156Z,32.50
2018-02-24T12:18:16.224Z,32.30
2018-02-24T12:20:44.424Z,32.20
2018-02-24T12:23:12.507Z,32.30
2018-02-24T12:25:40.580Z,32.40
2018-02-24T12:28:08.784Z,32.30
2018-02-24T12:30:36.855Z,32.20
2018-02-24T12:33:04.920Z,32.10
2018-02-24T12:35:33.176Z,32.20
2018-02-24T12:38:01.304Z,32.10
2018-02-24T12:40:30.146Z,31.80
2018-02-24T12:42:58.506Z,31.80
2018-02-24T12:45:26.708Z,31.60
2018-02-24T12:47:54.799Z,31.50
2018-02-24T12:50:23.200Z,31.50
2018-02-24T12:52:52.018Z,31.30
2018-02-24T12:55:20.258Z,31.30
2018-02-24T12:57:49.192Z,31.10
2018-02-24T13:00:17.439Z,31.10
2018-02-24T13:02:46.344Z,31.10
2018-02-24T13:05:14.583Z,31.00
2018-02-24T13:07:42.790Z,31.00
2018-02-24T13:10:10.884Z,31.00
2018-02-24T13:12:39.095Z,31.10
2018-02-24T13:15:07.164Z,31.20
2018-02-24T13:17:35.304Z,31.10
2018-02-24T13:20:03.639Z,31.10
2018-02-24T13:22:32.463Z,31.00
2018-02-24T13:25:00.539Z,31.00
2018-02-24T13:27:28.725Z,30.90
2018-02-24T13:29:56.852Z,30.90
2018-02-24T13:32:25.707Z,30.80
2018-02-24T13:34:53.916Z,30.80
2018-02-24T13:37:22.161Z,30.80
2018-02-24T13:39:50.360Z,30.50
2018-02-24T13:42:18.579Z,30.40
2018-02-24T13:44:46.882Z,30.40
2018-02-24T13:47:15.120Z,30.30
2018-02-24T13:49:44.082Z,30.00
2018-02-24T13:52:12.291Z,30.00
2018-02-24T13:54:41.163Z,30.00
2018-02-24T13:57:09.368Z,30.00
2018-02-24T13:59:40.238Z,30.10
2018-02-24T14:02:11.646Z,30.10
2018-02-24T14:04:39.847Z,29.90
2018-02-24T14:07:07.928Z,30.00
2018-02-24T14:09:38.331Z,29.70
2018-02-24T14:12:06.516Z,29.80
2018-02-24T14:14:34.712Z,29.80
2018-02-24T14:17:02.919Z,29.80
2018-02-24T14:19:31.013Z,29.80
2018-02-24T14:22:00.013Z,29.60
2018-02-24T14:24:28.960Z,29.60
2018-02-24T14:26:57.273Z,29.50
2018-02-24T14:29:26.156Z,29.40
2018-02-24T14:31:54.339Z,29.40
2018-02-24T14:34:23.153Z,29.20
2018-02-24T14:36:51.304Z,29.20
2018-02-24T14:39:20.419Z,28.90
2018-02-24T14:41:49.236Z,28.80
2018-02-24T14:44:17.340Z,28.80
2018-02-24T14:46:45.528Z,28.90
2018-02-24T14:49:13.591Z,28.90
2018-02-24T14:51:41.660Z,28.90
2018-02-24T14:54:10.031Z,28.90
2018-02-24T14:56:38.144Z,28.80
2018-02-24T14:59:06.973Z,28.80
2018-02-24T15:01:35.164Z,28.70
2018-02-24T15:04:03.243Z,28.70
2018-02-24T15:06:31.472Z,28.60
2018-02-24T15:09:01.348Z,28.70
2018-02-24T15:11:29.418Z,28.70
2018-02-24T15:13:57.496Z,28.80
2018-02-24T15:16:25.707Z,28.70
2018-02-24T15:18:54.542Z,28.70
2018-02-24T15:21:22.792Z,28.70
2018-02-24T15:23:50.984Z,28.60
2018-02-24T15:26:19.118Z,28.60
2018-02-24T15:28:48.087Z,28.60
2018-02-24T15:31:16.276Z,28.60
2018-02-24T15:33:45.097Z,28.70
2018-02-24T15:36:13.348Z,28.60
2018-02-24T15:38:42.435Z,28.70
2018-02-24T15:41:10.520Z,28.70
2018-02-24T15:43:39.315Z,28.70
2018-02-24T15:46:08.260Z,28.70
2018-02-24T15:48:36.480Z,28.70
2018-02-24T15:51:05.304Z,28.70
2018-02-24T15:53:33.506Z,28.70
2018-02-24T15:56:01.728Z,28.70
2018-02-24T15:58:30.531Z,28.60
2018-02-24T16:00:58.731Z,28.60
2018-02-24T16:03:26.843Z,28.60
2018-02-24T16:05:54.994Z,28.60
2018-02-24T16:08:23.462Z,28.60
2018-02-24T16:10:51.775Z,28.60
2018-02-24T16:13:20.044Z,28.60
2018-02-24T16:15:48.470Z,28.70
2018-02-24T16:18:16.552Z,28.60
2018-02-24T16:20:44.800Z,28.60
2018-02-24T16:23:13.463Z,28.60
2018-02-24T16:25:47.608Z,28.60
2018-02-24T16:28:16.984Z,28.60
2018-02-24T16:30:45.099Z,28.60
2018-02-24T16:33:13.348Z,28.50
2018-02-24T16:35:41.572Z,28.50
2018-02-24T16:38:10.472Z,28.40
2018-02-24T16:40:41.297Z,28.30
2018-02-24T16:43:09.776Z,28.30
2018-02-24T16:45:38.615Z,28.30
2018-02-24T16:48:07.587Z,28.30
2018-02-24T16:50:36.250Z,28.30
2018-02-24T16:53:07.218Z,28.30
2018-02-24T16:55:39.404Z,28.30
2018-02-24T16:58:07.819Z,28.30
2018-02-24T17:00:36.374Z,28.20
2018-02-24T17:03:05.033Z,28.20
2018-02-24T17:14:15.885Z,28.10
2018-02-24T17:16:44.584Z,28.00
2018-02-24T17:19:12.643Z,27.90
2018-02-24T17:21:40.936Z,28.00
2018-02-24T17:24:09.051Z,27.90
2018-02-24T17:26:38.002Z,27.90
2018-02-24T17:29:06.215Z,27.80
2018-02-24T17:31:35.032Z,28.00
2018-02-24T17:34:03.098Z,28.00
2018-02-24T17:36:32.036Z,28.00
2018-02-24T17:51:51.840Z,28.50
2018-02-24T17:54:20.200Z,28.30
2018-02-24T17:56:48.607Z,28.10
2018-02-24T17:59:17.488Z,28.10
2018-02-24T18:01:45.751Z,28.10
2018-02-24T18:04:14.116Z,28.10
2018-02-24T18:06:42.626Z,28.00
2018-02-24T18:09:10.951Z,28.00
2018-02-24T18:11:39.256Z,28.00
2018-02-24T18:14:07.451Z,28.00
2018-02-24T18:16:35.517Z,28.00
2018-02-24T18:19:03.787Z,28.00
2018-02-24T18:21:32.206Z,27.90
2018-02-24T18:24:00.388Z,27.90
2018-02-24T18:26:29.212Z,27.90
2018-02-24T18:28:57.428Z,27.90
2018-02-24T18:31:25.496Z,27.80
2018-02-24T18:33:53.564Z,27.80
2018-02-24T18:36:21.932Z,27.80
2018-02-24T18:38:50.256Z,27.80
2018-02-24T18:41:18.600Z,27.80
2018-02-24T18:43:53.675Z,27.80
2018-02-24T18:46:22.794Z,27.80
2018-02-24T18:48:51.724Z,27.80
2018-02-24T18:51:20.747Z,27.80
2018-02-24T18:53:49.727Z,27.80
2018-02-24T18:56:18.174Z,27.80
2018-02-24T18:58:48.711Z,27.80
2018-02-24T19:01:17.190Z,27.80
2018-02-24T19:03:45.255Z,27.70
2018-02-24T19:06:13.480Z,27.70
2018-02-24T19:08:41.552Z,27.70
2018-02-24T19:11:09.792Z,27.80
2018-02-24T19:13:37.992Z,27.70
2018-02-24T19:16:06.048Z,27.60
2018-02-24T19:18:34.128Z,27.60
2018-02-24T19:21:02.324Z,27.70
2018-02-24T19:23:30.395Z,27.60
2018-02-24T19:25:58.463Z,27.60
2018-02-24T19:28:26.688Z,27.60
2018-02-24T19:30:54.760Z,27.60
2018-02-24T19:33:22.833Z,27.50
2018-02-24T19:35:51.035Z,27.50
2018-02-24T19:38:19.104Z,27.50
2018-02-24T19:40:47.167Z,27.50
2018-02-24T19:43:15.359Z,27.40
2018-02-24T19:45:43.427Z,27.40
2018-02-24T19:48:11.512Z,27.40
2018-02-24T19:50:39.732Z,27.40
2018-02-24T19:53:08.539Z,27.30
2018-02-24T19:55:36.607Z,27.30
2018-02-24T19:58:04.796Z,27.30
2018-02-24T20:00:32.864Z,27.40
2018-02-24T20:03:01.084Z,27.40
2018-02-24T20:05:29.281Z,27.40
2018-02-24T20:07:58.076Z,27.40
2018-02-24T20:10:26.871Z,27.40
2018-02-24T20:12:55.140Z,27.40
2018-02-24T20:15:23.952Z,27.50
2018-02-24T20:17:52.011Z,27.50
2018-02-24T20:20:20.943Z,27.50
2018-02-24T20:22:49.013Z,27.50
2018-02-24T20:25:17.119Z,27.50
2018-02-24T20:27:45.305Z,27.50
2018-02-24T20:30:14.150Z,27.50
2018-02-24T20:32:42.212Z,27.40
2018-02-24T20:35:10.416Z,27.50
2018-02-24T20:37:38.491Z,27.50
2018-02-24T20:40:06.567Z,27.50
2018-02-24T20:42:34.751Z,27.50
2018-02-24T20:45:02.835Z,27.50
2018-02-24T20:47:30.900Z,27.40
2018-02-24T20:49:59.085Z,27.50
2018-02-24T20:52:27.300Z,27.50
2018-02-24T20:54:55.532Z,27.50
2018-02-24T20:57:23.727Z,27.50
2018-02-24T20:59:52.547Z,27.40
2018-02-24T21:02:20.599Z,27.30
2018-02-24T21:04:49.677Z,27.40
2018-02-24T21:07:17.751Z,27.40
2018-02-24T21:09:45.824Z,27.30
2018-02-24T21:12:14.027Z,27.20
2018-02-24T21:14:42.084Z,27.30
2018-02-24T21:17:10.887Z,27.40
2018-02-24T21:19:39.824Z,27.40
2018-02-24T21:22:07.895Z,27.40
2018-02-24T21:24:35.968Z,27.40
2018-02-24T21:27:04.163Z,27.40
2018-02-24T21:29:32.238Z,27.30
2018-02-24T21:32:00.299Z,27.30
2018-02-24T21:34:28.492Z,27.30
2018-02-24T21:36:56.564Z,27.20
2018-02-24T21:39:24.632Z,27.10
2018-02-24T21:41:52.815Z,26.90
2018-02-24T21:44:20.876Z,26.70
2018-02-24T21:46:48.936Z,26.60
2018-02-24T21:49:17.115Z,26.60
2018-02-24T21:51:45.167Z,26.60
2018-02-24T21:54:13.248Z,26.70
2018-02-24T21:56:41.591Z,26.70
2018-02-24T21:59:09.663Z,26.70
2018-02-24T22:01:37.731Z,26.60
2018-02-24T22:04:06.771Z,26.60
2018-02-24T22:06:34.984Z,26.60
2018-02-24T22:09:04.064Z,26.70
2018-02-24T22:11:32.268Z,26.70
2018-02-24T22:14:01.077Z,26.70
2018-02-24T22:16:29.160Z,26.70
2018-02-24T22:18:57.365Z,26.70
2018-02-24T22:21:25.415Z,26.70
2018-02-24T22:23:53.488Z,26.70
2018-02-24T22:26:21.738Z,26.70
2018-02-24T22:28:49.803Z,26.70
2018-02-24T22:31:19.559Z,26.70
2018-02-24T22:33:47.747Z,26.70
2018-02-24T22:36:15.827Z,26.70
2018-02-24T22:38:43.900Z,26.70
2018-02-24T22:41:12.088Z,26.70
2018-02-24T22:43:40.321Z,26.70
2018-02-24T22:46:08.539Z,26.70
2018-02-24T22:48:42.449Z,26.70
2018-02-24T22:51:10.575Z,26.70
2018-02-24T22:53:38.656Z,26.70
2018-02-24T22:56:06.843Z,26.60
2018-02-24T22:58:34.918Z,26.60
2018-02-24T23:01:02.992Z,26.70
2018-02-24T23:03:31.188Z,26.70
2018-02-24T23:05:59.260Z,26.70
2018-02-24T23:08:27.471Z,26.70
2018-02-24T23:10:56.408Z,26.80
2018-02-24T23:13:24.466Z,26.80
2018-02-24T23:15:52.551Z,26.80
2018-02-24T23:18:20.744Z,26.80
2018-02-24T23:20:48.800Z,26.80
2018-02-24T23:23:16.865Z,26.80
2018-02-24T23:25:45.047Z,26.80
2018-02-24T23:28:13.107Z,26.80
2018-02-24T23:30:41.175Z,26.80
2018-02-24T23:33:09.371Z,26.80
2018-02-24T23:35:37.435Z,26.80
2018-02-24T23:38:05.503Z,26.80
2018-02-24T23:40:33.852Z,26.80
2018-02-24T23:43:02.651Z,26.80
2018-02-24T23:45:30.724Z,26.80
2018-02-24T23:47:59.083Z,26.70
2018-02-24T23:50:28.068Z,26.70
2018-02-24T23:52:56.300Z,26.70
2018-02-24T23:55:24.664Z,26.70
2018-02-24T23:57:52.731Z,26.70
